sensor_id;sensor_type;location;lat;lon;timestamp;temperature;humidity
15452;DHT22;7827;53.594;9.938;2023-04-15T00:00:57;8.10;99.90
15452;DHT22;7827;53.594;9.938;2023-04-15T00:03:26;8.10;99.90
15452;DHT22;7827;53.594;9.938;2023-04-15T00:05:54;8.30;99.90
15452;DHT22;7827;53.594;9.938;2023-04-15T00:08:23;8.30;99.90
15452;DHT22;7827;53.594;9.938;2023-04-15T00:10:52;8.50;99.90
15452;DHT22;7827;53.594;9.938;2023-04-15T00:13:20;8.40;99.90
15452;DHT22;7827;53.594;9.938;2023-04-15T00:15:49;8.30;99.90
15452;DHT22;7827;53.594;9.938;2023-04-15T00:18:19;8.20;99.90
15452;DHT22;7827;53.594;9.938;2023-04-15T00:20:47;8.20;99.90
15452;DHT22;7827;53.594;9.938;2023-04-15T00:23:16;8.10;99.90
15452;DHT22;7827;53.594;9.938;2023-04-15T00:25:44;8.10;99.90
15452;DHT22;7827;53.594;9.938;2023-04-15T00:28:12;8.10;99.90
15452;DHT22;7827;53.594;9.938;2023-04-15T00:30:41;8.10;99.90
15452;DHT22;7827;53.594;9.938;2023-04-15T00:33:10;8.10;99.90
15452;DHT22;7827;53.594;9.938;2023-04-15T00:35:41;8.10;99.90
15452;DHT22;7827;53.594;9.938;2023-04-15T00:38:09;8.00;99.90
15452;DHT22;7827;53.594;9.938;2023-04-15T00:40:38;8.00;99.90
15452;DHT22;7827;53.594;9.938;2023-04-15T00:43:07;8.00;99.90
15452;DHT22;7827;53.594;9.938;2023-04-15T00:45:35;7.90;99.90
15452;DHT22;7827;53.594;9.938;2023-04-15T00:48:04;7.80;99.90
15452;DHT22;7827;53.594;9.938;2023-04-15T00:50:33;7.90;99.90
15452;DHT22;7827;53.594;9.938;2023-04-15T00:53:02;7.80;99.90
15452;DHT22;7827;53.594;9.938;2023-04-15T00:55:32;7.80;99.90
15452;DHT22;7827;53.594;9.938;2023-04-15T00:58:00;7.90;99.90
15452;DHT22;7827;53.594;9.938;2023-04-15T01:00:29;7.80;99.90
15452;DHT22;7827;53.594;9.938;2023-04-15T01:02:57;7.80;99.90
15452;DHT22;7827;53.594;9.938;2023-04-15T01:05:27;7.90;99.90
15452;DHT22;7827;53.594;9.938;2023-04-15T01:07:56;7.90;99.90
15452;DHT22;7827;53.594;9.938;2023-04-15T01:10:26;8.00;99.90
15452;DHT22;7827;53.594;9.938;2023-04-15T01:12:54;7.90;99.90
15452;DHT22;7827;53.594;9.938;2023-04-15T01:15:24;7.80;99.90
15452;DHT22;7827;53.594;9.938;2023-04-15T01:17:53;7.90;99.90
15452;DHT22;7827;53.594;9.938;2023-04-15T01:20:22;7.90;99.90
15452;DHT22;7827;53.594;9.938;2023-04-15T01:22:50;7.90;99.90
15452;DHT22;7827;53.594;9.938;2023-04-15T01:25:24;7.90;99.90
15452;DHT22;7827;53.594;9.938;2023-04-15T01:27:58;7.90;99.90
15452;DHT22;7827;53.594;9.938;2023-04-15T01:30:26;7.90;99.90
15452;DHT22;7827;53.594;9.938;2023-04-15T01:32:55;7.90;99.90
15452;DHT22;7827;53.594;9.938;2023-04-15T01:35:42;7.90;99.90
15452;DHT22;7827;53.594;9.938;2023-04-15T01:38:11;8.00;99.90
15452;DHT22;7827;53.594;9.938;2023-04-15T01:40:41;8.10;99.90
15452;DHT22;7827;53.594;9.938;2023-04-15T01:43:09;8.00;99.90
15452;DHT22;7827;53.594;9.938;2023-04-15T01:45:37;7.90;99.90
15452;DHT22;7827;53.594;9.938;2023-04-15T01:48:06;7.90;99.90
15452;DHT22;7827;53.594;9.938;2023-04-15T01:50:37;7.90;99.90
15452;DHT22;7827;53.594;9.938;2023-04-15T01:53:05;7.90;99.90
15452;DHT22;7827;53.594;9.938;2023-04-15T01:55:34;7.90;99.90
15452;DHT22;7827;53.594;9.938;2023-04-15T01:58:04;7.90;99.90
15452;DHT22;7827;53.594;9.938;2023-04-15T02:00:32;7.90;99.90
15452;DHT22;7827;53.594;9.938;2023-04-15T02:03:01;7.90;99.90
15452;DHT22;7827;53.594;9.938;2023-04-15T02:05:30;8.00;99.90
15452;DHT22;7827;53.594;9.938;2023-04-15T02:07:58;8.00;99.90
15452;DHT22;7827;53.594;9.938;2023-04-15T02:10:27;8.00;99.90
15452;DHT22;7827;53.594;9.938;2023-04-15T02:12:55;8.00;99.90
15452;DHT22;7827;53.594;9.938;2023-04-15T02:15:28;8.00;99.90
15452;DHT22;7827;53.594;9.938;2023-04-15T02:17:56;8.00;99.90
15452;DHT22;7827;53.594;9.938;2023-04-15T02:20:26;8.00;99.90
15452;DHT22;7827;53.594;9.938;2023-04-15T02:22:57;8.00;99.90
15452;DHT22;7827;53.594;9.938;2023-04-15T02:25:25;8.00;99.90
15452;DHT22;7827;53.594;9.938;2023-04-15T02:27:56;8.00;99.90
15452;DHT22;7827;53.594;9.938;2023-04-15T02:30:24;8.00;99.90
15452;DHT22;7827;53.594;9.938;2023-04-15T02:32:54;8.00;99.90
15452;DHT22;7827;53.594;9.938;2023-04-15T02:35:24;8.00;99.90
15452;DHT22;7827;53.594;9.938;2023-04-15T02:37:53;8.00;99.90
15452;DHT22;7827;53.594;9.938;2023-04-15T02:40:22;8.10;99.90
15452;DHT22;7827;53.594;9.938;2023-04-15T02:42:50;8.10;99.90
15452;DHT22;7827;53.594;9.938;2023-04-15T02:45:19;8.10;99.90
15452;DHT22;7827;53.594;9.938;2023-04-15T02:47:50;8.10;99.90
15452;DHT22;7827;53.594;9.938;2023-04-15T02:50:20;8.10;99.90
15452;DHT22;7827;53.594;9.938;2023-04-15T02:52:49;8.10;99.90
15452;DHT22;7827;53.594;9.938;2023-04-15T02:55:18;8.00;99.90
15452;DHT22;7827;53.594;9.938;2023-04-15T02:57:47;8.00;99.90
15452;DHT22;7827;53.594;9.938;2023-04-15T03:00:15;8.00;99.90
15452;DHT22;7827;53.594;9.938;2023-04-15T03:02:46;8.00;99.90
15452;DHT22;7827;53.594;9.938;2023-04-15T03:05:19;8.00;99.90
15452;DHT22;7827;53.594;9.938;2023-04-15T03:07:50;8.00;99.90
15452;DHT22;7827;53.594;9.938;2023-04-15T03:10:19;8.00;99.90
15452;DHT22;7827;53.594;9.938;2023-04-15T03:12:48;8.00;99.90
15452;DHT22;7827;53.594;9.938;2023-04-15T03:15:18;8.00;99.90
15452;DHT22;7827;53.594;9.938;2023-04-15T03:17:50;8.00;99.90
15452;DHT22;7827;53.594;9.938;2023-04-15T03:20:20;8.10;99.90
15452;DHT22;7827;53.594;9.938;2023-04-15T03:22:48;8.10;99.90
15452;DHT22;7827;53.594;9.938;2023-04-15T03:25:19;8.00;99.90
15452;DHT22;7827;53.594;9.938;2023-04-15T03:27:47;8.00;99.90
15452;DHT22;7827;53.594;9.938;2023-04-15T03:30:16;8.10;99.90
15452;DHT22;7827;53.594;9.938;2023-04-15T03:32:45;8.10;99.90
15452;DHT22;7827;53.594;9.938;2023-04-15T03:35:14;8.10;99.90
15452;DHT22;7827;53.594;9.938;2023-04-15T03:37:44;8.10;99.90
15452;DHT22;7827;53.594;9.938;2023-04-15T03:40:14;8.10;99.90
15452;DHT22;7827;53.594;9.938;2023-04-15T03:42:43;8.10;99.90
15452;DHT22;7827;53.594;9.938;2023-04-15T03:45:11;8.10;99.90
15452;DHT22;7827;53.594;9.938;2023-04-15T03:47:40;8.20;99.90
15452;DHT22;7827;53.594;9.938;2023-04-15T03:50:09;8.00;99.90
15452;DHT22;7827;53.594;9.938;2023-04-15T03:52:37;8.00;99.90
15452;DHT22;7827;53.594;9.938;2023-04-15T03:55:08;8.00;99.90
15452;DHT22;7827;53.594;9.938;2023-04-15T03:57:36;8.00;99.90
15452;DHT22;7827;53.594;9.938;2023-04-15T04:00:06;8.00;99.90
15452;DHT22;7827;53.594;9.938;2023-04-15T04:02:39;8.00;99.90
15452;DHT22;7827;53.594;9.938;2023-04-15T04:05:08;8.00;99.90
15452;DHT22;7827;53.594;9.938;2023-04-15T04:07:36;8.00;99.90
15452;DHT22;7827;53.594;9.938;2023-04-15T04:10:07;8.00;99.90
15452;DHT22;7827;53.594;9.938;2023-04-15T04:12:36;8.00;99.90
15452;DHT22;7827;53.594;9.938;2023-04-15T04:15:05;8.00;99.90
15452;DHT22;7827;53.594;9.938;2023-04-15T04:17:34;8.00;99.90
15452;DHT22;7827;53.594;9.938;2023-04-15T04:20:02;8.00;99.90
15452;DHT22;7827;53.594;9.938;2023-04-15T04:22:36;8.00;99.90
15452;DHT22;7827;53.594;9.938;2023-04-15T04:25:08;8.00;99.90
15452;DHT22;7827;53.594;9.938;2023-04-15T04:27:37;8.10;99.90
15452;DHT22;7827;53.594;9.938;2023-04-15T04:30:06;8.10;99.90
15452;DHT22;7827;53.594;9.938;2023-04-15T04:32:35;8.10;99.90
15452;DHT22;7827;53.594;9.938;2023-04-15T04:35:04;8.10;99.90
15452;DHT22;7827;53.594;9.938;2023-04-15T04:37:33;8.20;99.90
15452;DHT22;7827;53.594;9.938;2023-04-15T04:40:01;8.20;99.90
15452;DHT22;7827;53.594;9.938;2023-04-15T04:42:31;8.20;99.90
15452;DHT22;7827;53.594;9.938;2023-04-15T04:45:00;8.20;99.90
15452;DHT22;7827;53.594;9.938;2023-04-15T04:47:29;8.20;99.90
15452;DHT22;7827;53.594;9.938;2023-04-15T04:49:57;8.10;99.90
15452;DHT22;7827;53.594;9.938;2023-04-15T04:52:25;8.10;99.90
15452;DHT22;7827;53.594;9.938;2023-04-15T04:54:54;8.20;99.90
15452;DHT22;7827;53.594;9.938;2023-04-15T04:57:22;8.20;99.90
15452;DHT22;7827;53.594;9.938;2023-04-15T04:59:52;8.20;99.90
15452;DHT22;7827;53.594;9.938;2023-04-15T05:02:20;8.10;99.90
15452;DHT22;7827;53.594;9.938;2023-04-15T05:04:49;8.10;99.90
15452;DHT22;7827;53.594;9.938;2023-04-15T05:07:20;8.10;99.90
15452;DHT22;7827;53.594;9.938;2023-04-15T05:09:48;8.20;99.90
15452;DHT22;7827;53.594;9.938;2023-04-15T05:12:16;8.20;99.90
15452;DHT22;7827;53.594;9.938;2023-04-15T05:14:45;8.20;99.90
15452;DHT22;7827;53.594;9.938;2023-04-15T05:17:15;8.20;99.90
15452;DHT22;7827;53.594;9.938;2023-04-15T05:19:43;8.20;99.90
15452;DHT22;7827;53.594;9.938;2023-04-15T05:22:11;8.30;99.90
15452;DHT22;7827;53.594;9.938;2023-04-15T05:24:39;8.20;99.90
15452;DHT22;7827;53.594;9.938;2023-04-15T05:27:08;8.20;99.90
15452;DHT22;7827;53.594;9.938;2023-04-15T05:29:37;8.20;99.90
15452;DHT22;7827;53.594;9.938;2023-04-15T05:32:06;8.20;99.90
15452;DHT22;7827;53.594;9.938;2023-04-15T05:34:35;8.30;99.90
15452;DHT22;7827;53.594;9.938;2023-04-15T05:37:04;8.30;99.90
15452;DHT22;7827;53.594;9.938;2023-04-15T05:39:32;8.20;99.90
15452;DHT22;7827;53.594;9.938;2023-04-15T05:42:01;8.20;99.90
15452;DHT22;7827;53.594;9.938;2023-04-15T05:44:29;8.30;99.90
15452;DHT22;7827;53.594;9.938;2023-04-15T05:46:57;8.20;99.90
15452;DHT22;7827;53.594;9.938;2023-04-15T05:49:25;8.30;99.90
15452;DHT22;7827;53.594;9.938;2023-04-15T05:51:55;8.30;99.90
15452;DHT22;7827;53.594;9.938;2023-04-15T05:54:24;8.30;99.90
15452;DHT22;7827;53.594;9.938;2023-04-15T05:56:53;8.30;99.90
15452;DHT22;7827;53.594;9.938;2023-04-15T05:59:22;8.40;99.90
15452;DHT22;7827;53.594;9.938;2023-04-15T06:01:50;8.40;99.90
15452;DHT22;7827;53.594;9.938;2023-04-15T06:04:19;8.30;99.90
15452;DHT22;7827;53.594;9.938;2023-04-15T06:06:48;8.30;99.90
15452;DHT22;7827;53.594;9.938;2023-04-15T06:09:18;8.30;99.90
15452;DHT22;7827;53.594;9.938;2023-04-15T06:11:46;8.40;99.90
15452;DHT22;7827;53.594;9.938;2023-04-15T06:14:15;8.30;99.90
15452;DHT22;7827;53.594;9.938;2023-04-15T06:16:43;8.30;99.90
15452;DHT22;7827;53.594;9.938;2023-04-15T06:19:11;8.40;99.90
15452;DHT22;7827;53.594;9.938;2023-04-15T06:21:40;8.30;99.90
15452;DHT22;7827;53.594;9.938;2023-04-15T06:24:09;8.50;99.90
15452;DHT22;7827;53.594;9.938;2023-04-15T06:26:39;8.50;99.90
15452;DHT22;7827;53.594;9.938;2023-04-15T06:29:08;8.50;99.90
15452;DHT22;7827;53.594;9.938;2023-04-15T06:31:36;8.50;99.90
15452;DHT22;7827;53.594;9.938;2023-04-15T06:34:04;8.40;99.90
15452;DHT22;7827;53.594;9.938;2023-04-15T06:36:33;8.40;99.90
15452;DHT22;7827;53.594;9.938;2023-04-15T06:39:01;8.40;99.90
15452;DHT22;7827;53.594;9.938;2023-04-15T06:41:30;8.30;99.90
15452;DHT22;7827;53.594;9.938;2023-04-15T06:44:00;8.40;99.90
15452;DHT22;7827;53.594;9.938;2023-04-15T06:46:28;8.40;99.90
15452;DHT22;7827;53.594;9.938;2023-04-15T06:48:57;8.50;99.90
15452;DHT22;7827;53.594;9.938;2023-04-15T06:51:25;8.50;99.90
15452;DHT22;7827;53.594;9.938;2023-04-15T06:53:54;8.50;99.90
15452;DHT22;7827;53.594;9.938;2023-04-15T06:56:22;8.50;99.90
15452;DHT22;7827;53.594;9.938;2023-04-15T06:58:51;8.60;99.90
15452;DHT22;7827;53.594;9.938;2023-04-15T07:01:21;8.70;99.90
15452;DHT22;7827;53.594;9.938;2023-04-15T07:03:49;8.60;99.90
15452;DHT22;7827;53.594;9.938;2023-04-15T07:06:18;8.60;99.90
15452;DHT22;7827;53.594;9.938;2023-04-15T07:08:47;8.60;99.90
15452;DHT22;7827;53.594;9.938;2023-04-15T07:11:16;8.60;99.90
15452;DHT22;7827;53.594;9.938;2023-04-15T07:13:44;8.60;99.90
15452;DHT22;7827;53.594;9.938;2023-04-15T07:16:13;8.60;99.90
15452;DHT22;7827;53.594;9.938;2023-04-15T07:18:42;8.60;99.90
15452;DHT22;7827;53.594;9.938;2023-04-15T07:21:11;8.60;99.90
15452;DHT22;7827;53.594;9.938;2023-04-15T07:23:40;8.60;99.90
15452;DHT22;7827;53.594;9.938;2023-04-15T07:26:09;8.70;99.90
15452;DHT22;7827;53.594;9.938;2023-04-15T07:28:38;8.70;99.90
15452;DHT22;7827;53.594;9.938;2023-04-15T07:31:06;8.70;99.90
15452;DHT22;7827;53.594;9.938;2023-04-15T07:33:34;8.80;99.90
15452;DHT22;7827;53.594;9.938;2023-04-15T07:36:05;8.80;99.90
15452;DHT22;7827;53.594;9.938;2023-04-15T07:38:33;8.80;99.90
15452;DHT22;7827;53.594;9.938;2023-04-15T07:41:02;8.90;99.90
15452;DHT22;7827;53.594;9.938;2023-04-15T07:43:30;8.80;99.90
15452;DHT22;7827;53.594;9.938;2023-04-15T07:45:59;8.80;99.90
15452;DHT22;7827;53.594;9.938;2023-04-15T07:48:27;8.80;99.90
15452;DHT22;7827;53.594;9.938;2023-04-15T07:50:57;8.80;99.90
15452;DHT22;7827;53.594;9.938;2023-04-15T07:53:27;8.80;99.90
15452;DHT22;7827;53.594;9.938;2023-04-15T07:55:56;8.80;99.90
15452;DHT22;7827;53.594;9.938;2023-04-15T07:58:25;8.80;99.90
15452;DHT22;7827;53.594;9.938;2023-04-15T08:00:54;8.80;99.90
15452;DHT22;7827;53.594;9.938;2023-04-15T08:03:23;8.80;99.90
15452;DHT22;7827;53.594;9.938;2023-04-15T08:05:52;8.90;99.90
15452;DHT22;7827;53.594;9.938;2023-04-15T08:08:21;8.90;99.90
15452;DHT22;7827;53.594;9.938;2023-04-15T08:10:51;8.90;99.90
15452;DHT22;7827;53.594;9.938;2023-04-15T08:13:19;8.90;99.90
15452;DHT22;7827;53.594;9.938;2023-04-15T08:16:18;9.00;99.90
15452;DHT22;7827;53.594;9.938;2023-04-15T08:18:48;9.00;99.90
15452;DHT22;7827;53.594;9.938;2023-04-15T08:21:18;9.00;99.90
15452;DHT22;7827;53.594;9.938;2023-04-15T08:23:48;9.00;99.90
15452;DHT22;7827;53.594;9.938;2023-04-15T08:26:20;9.10;99.90
15452;DHT22;7827;53.594;9.938;2023-04-15T08:28:49;9.10;99.90
15452;DHT22;7827;53.594;9.938;2023-04-15T08:31:18;9.20;99.90
15452;DHT22;7827;53.594;9.938;2023-04-15T08:33:47;9.10;99.90
15452;DHT22;7827;53.594;9.938;2023-04-15T08:36:18;9.10;99.90
15452;DHT22;7827;53.594;9.938;2023-04-15T08:38:47;9.10;99.90
15452;DHT22;7827;53.594;9.938;2023-04-15T08:41:21;9.10;99.90
15452;DHT22;7827;53.594;9.938;2023-04-15T08:43:53;9.20;99.90
15452;DHT22;7827;53.594;9.938;2023-04-15T08:46:24;9.20;99.90
15452;DHT22;7827;53.594;9.938;2023-04-15T08:48:56;9.30;99.90
15452;DHT22;7827;53.594;9.938;2023-04-15T08:51:27;9.30;99.90
15452;DHT22;7827;53.594;9.938;2023-04-15T08:53:56;9.20;99.90
15452;DHT22;7827;53.594;9.938;2023-04-15T08:56:27;9.20;99.90
15452;DHT22;7827;53.594;9.938;2023-04-15T08:58:59;9.30;99.90
15452;DHT22;7827;53.594;9.938;2023-04-15T09:01:28;9.30;99.90
15452;DHT22;7827;53.594;9.938;2023-04-15T09:03:56;9.50;99.90
15452;DHT22;7827;53.594;9.938;2023-04-15T09:06:26;9.50;99.90
15452;DHT22;7827;53.594;9.938;2023-04-15T09:08:55;9.50;99.90
15452;DHT22;7827;53.594;9.938;2023-04-15T09:11:23;9.40;99.90
15452;DHT22;7827;53.594;9.938;2023-04-15T09:13:55;9.50;99.90
15452;DHT22;7827;53.594;9.938;2023-04-15T09:16:24;9.50;99.90
15452;DHT22;7827;53.594;9.938;2023-04-15T09:18:53;9.50;99.90
15452;DHT22;7827;53.594;9.938;2023-04-15T09:21:21;9.60;99.90
15452;DHT22;7827;53.594;9.938;2023-04-15T09:23:55;9.60;99.90
15452;DHT22;7827;53.594;9.938;2023-04-15T09:26:32;9.60;99.90
15452;DHT22;7827;53.594;9.938;2023-04-15T09:29:04;9.60;99.90
15452;DHT22;7827;53.594;9.938;2023-04-15T09:31:35;9.70;99.90
15452;DHT22;7827;53.594;9.938;2023-04-15T09:34:04;9.80;99.90
15452;DHT22;7827;53.594;9.938;2023-04-15T09:36:50;9.70;99.90
15452;DHT22;7827;53.594;9.938;2023-04-15T09:39:20;9.80;99.90
15452;DHT22;7827;53.594;9.938;2023-04-15T09:42:04;9.90;99.90
15452;DHT22;7827;53.594;9.938;2023-04-15T09:44:35;9.90;99.90
15452;DHT22;7827;53.594;9.938;2023-04-15T09:47:05;10.00;99.90
15452;DHT22;7827;53.594;9.938;2023-04-15T09:49:34;10.10;99.90
15452;DHT22;7827;53.594;9.938;2023-04-15T09:52:02;10.20;99.90
15452;DHT22;7827;53.594;9.938;2023-04-15T09:54:34;10.20;99.90
15452;DHT22;7827;53.594;9.938;2023-04-15T09:57:07;10.30;99.90
15452;DHT22;7827;53.594;9.938;2023-04-15T09:59:39;10.40;99.90
15452;DHT22;7827;53.594;9.938;2023-04-15T10:02:08;10.50;99.90
15452;DHT22;7827;53.594;9.938;2023-04-15T10:04:40;10.70;99.90
15452;DHT22;7827;53.594;9.938;2023-04-15T10:07:09;10.60;99.90
15452;DHT22;7827;53.594;9.938;2023-04-15T10:09:39;10.80;99.90
15452;DHT22;7827;53.594;9.938;2023-04-15T10:12:08;10.80;99.90
15452;DHT22;7827;53.594;9.938;2023-04-15T10:14:38;10.80;99.90
15452;DHT22;7827;53.594;9.938;2023-04-15T10:17:10;10.80;99.90
15452;DHT22;7827;53.594;9.938;2023-04-15T10:19:39;10.90;99.90
15452;DHT22;7827;53.594;9.938;2023-04-15T10:22:08;11.00;99.90
15452;DHT22;7827;53.594;9.938;2023-04-15T10:24:38;11.10;99.90
15452;DHT22;7827;53.594;9.938;2023-04-15T10:27:07;11.20;99.90
15452;DHT22;7827;53.594;9.938;2023-04-15T10:29:38;11.40;99.90
15452;DHT22;7827;53.594;9.938;2023-04-15T10:32:08;11.50;99.90
15452;DHT22;7827;53.594;9.938;2023-04-15T10:34:39;11.60;99.90
15452;DHT22;7827;53.594;9.938;2023-04-15T10:37:09;11.80;99.90
15452;DHT22;7827;53.594;9.938;2023-04-15T10:39:39;12.00;99.90
15452;DHT22;7827;53.594;9.938;2023-04-15T10:42:11;12.20;99.90
15452;DHT22;7827;53.594;9.938;2023-04-15T10:44:43;12.30;99.90
15452;DHT22;7827;53.594;9.938;2023-04-15T10:47:14;12.40;99.90
15452;DHT22;7827;53.594;9.938;2023-04-15T10:49:46;12.40;99.90
15452;DHT22;7827;53.594;9.938;2023-04-15T10:52:17;12.40;99.90
15452;DHT22;7827;53.594;9.938;2023-04-15T10:55:01;12.40;99.90
15452;DHT22;7827;53.594;9.938;2023-04-15T10:57:34;12.60;99.90
15452;DHT22;7827;53.594;9.938;2023-04-15T11:00:13;13.00;99.90
15452;DHT22;7827;53.594;9.938;2023-04-15T11:02:45;13.20;99.90
15452;DHT22;7827;53.594;9.938;2023-04-15T11:05:15;13.30;99.90
15452;DHT22;7827;53.594;9.938;2023-04-15T11:07:53;13.40;99.90
15452;DHT22;7827;53.594;9.938;2023-04-15T11:10:50;13.20;99.90
15452;DHT22;7827;53.594;9.938;2023-04-15T11:13:26;13.10;99.90
15452;DHT22;7827;53.594;9.938;2023-04-15T11:16:02;13.30;99.90
15452;DHT22;7827;53.594;9.938;2023-04-15T11:18:32;13.30;99.90
15452;DHT22;7827;53.594;9.938;2023-04-15T11:21:03;13.50;99.90
15452;DHT22;7827;53.594;9.938;2023-04-15T11:23:35;13.50;99.90
15452;DHT22;7827;53.594;9.938;2023-04-15T11:26:07;13.50;99.90
15452;DHT22;7827;53.594;9.938;2023-04-15T11:28:39;13.40;99.90
15452;DHT22;7827;53.594;9.938;2023-04-15T11:31:11;13.40;99.90
15452;DHT22;7827;53.594;9.938;2023-04-15T11:33:52;13.30;99.90
15452;DHT22;7827;53.594;9.938;2023-04-15T11:36:23;13.20;99.90
15452;DHT22;7827;53.594;9.938;2023-04-15T11:38:54;13.10;99.90
15452;DHT22;7827;53.594;9.938;2023-04-15T11:41:24;13.20;99.90
15452;DHT22;7827;53.594;9.938;2023-04-15T11:43:53;13.10;99.90
15452;DHT22;7827;53.594;9.938;2023-04-15T11:46:28;13.10;99.90
15452;DHT22;7827;53.594;9.938;2023-04-15T11:48:57;13.10;76.40
15452;DHT22;7827;53.594;9.938;2023-04-15T11:51:31;13.20;60.80
15452;DHT22;7827;53.594;9.938;2023-04-15T11:54:00;13.20;67.30
15452;DHT22;7827;53.594;9.938;2023-04-15T11:56:29;13.20;18.40
15452;DHT22;7827;53.594;9.938;2023-04-15T11:58:58;13.20;15.80
15452;DHT22;7827;53.594;9.938;2023-04-15T12:01:31;13.30;14.80
15452;DHT22;7827;53.594;9.938;2023-04-15T12:04:01;13.30;10.40
15452;DHT22;7827;53.594;9.938;2023-04-15T12:06:31;13.30;1.00
15452;DHT22;7827;53.594;9.938;2023-04-15T12:09:10;13.30;9.20
15452;DHT22;7827;53.594;9.938;2023-04-15T12:11:41;13.40;1.00
15452;DHT22;7827;53.594;9.938;2023-04-15T12:14:15;13.40;1.00
15452;DHT22;7827;53.594;9.938;2023-04-15T12:16:50;13.50;1.00
15452;DHT22;7827;53.594;9.938;2023-04-15T12:19:25;13.30;1.00
15452;DHT22;7827;53.594;9.938;2023-04-15T12:21:57;13.20;4.60
15452;DHT22;7827;53.594;9.938;2023-04-15T12:24:29;13.30;11.00
15452;DHT22;7827;53.594;9.938;2023-04-15T12:27:01;13.20;1.50
15452;DHT22;7827;53.594;9.938;2023-04-15T12:29:31;13.20;1.00
15452;DHT22;7827;53.594;9.938;2023-04-15T12:32:06;13.10;1.00
15452;DHT22;7827;53.594;9.938;2023-04-15T12:34:37;13.10;1.00
15452;DHT22;7827;53.594;9.938;2023-04-15T12:37:08;12.90;1.00
15452;DHT22;7827;53.594;9.938;2023-04-15T12:39:38;12.90;1.00
15452;DHT22;7827;53.594;9.938;2023-04-15T12:42:08;12.90;1.00
15452;DHT22;7827;53.594;9.938;2023-04-15T12:44:38;12.90;1.00
15452;DHT22;7827;53.594;9.938;2023-04-15T12:47:09;12.90;1.00
15452;DHT22;7827;53.594;9.938;2023-04-15T12:49:38;12.90;1.00
15452;DHT22;7827;53.594;9.938;2023-04-15T12:52:07;12.90;1.00
15452;DHT22;7827;53.594;9.938;2023-04-15T12:54:35;12.90;1.00
15452;DHT22;7827;53.594;9.938;2023-04-15T12:57:04;12.80;1.00
15452;DHT22;7827;53.594;9.938;2023-04-15T12:59:33;12.90;1.00
15452;DHT22;7827;53.594;9.938;2023-04-15T13:02:02;13.00;1.00
15452;DHT22;7827;53.594;9.938;2023-04-15T13:04:32;13.10;1.00
15452;DHT22;7827;53.594;9.938;2023-04-15T13:07:01;13.10;1.00
15452;DHT22;7827;53.594;9.938;2023-04-15T13:09:30;13.20;1.00
15452;DHT22;7827;53.594;9.938;2023-04-15T13:11:59;13.30;1.00
15452;DHT22;7827;53.594;9.938;2023-04-15T13:14:28;13.30;1.00
15452;DHT22;7827;53.594;9.938;2023-04-15T13:16:57;13.50;1.00
15452;DHT22;7827;53.594;9.938;2023-04-15T13:19:26;13.50;1.00
15452;DHT22;7827;53.594;9.938;2023-04-15T13:21:56;13.60;1.00
15452;DHT22;7827;53.594;9.938;2023-04-15T13:24:24;13.60;1.00
15452;DHT22;7827;53.594;9.938;2023-04-15T13:26:54;13.70;1.00
15452;DHT22;7827;53.594;9.938;2023-04-15T13:29:24;13.70;1.00
15452;DHT22;7827;53.594;9.938;2023-04-15T13:31:53;13.80;1.00
15452;DHT22;7827;53.594;9.938;2023-04-15T13:34:22;13.70;99.90
15452;DHT22;7827;53.594;9.938;2023-04-15T13:36:50;13.80;1.00
15452;DHT22;7827;53.594;9.938;2023-04-15T13:39:20;13.70;1.00
15452;DHT22;7827;53.594;9.938;2023-04-15T13:41:49;13.70;1.00
15452;DHT22;7827;53.594;9.938;2023-04-15T13:44:17;13.80;1.00
15452;DHT22;7827;53.594;9.938;2023-04-15T13:46:48;14.00;1.00
15452;DHT22;7827;53.594;9.938;2023-04-15T13:49:16;14.00;99.90
15452;DHT22;7827;53.594;9.938;2023-04-15T13:51:45;14.10;1.00
15452;DHT22;7827;53.594;9.938;2023-04-15T13:54:13;14.10;99.90
15452;DHT22;7827;53.594;9.938;2023-04-15T13:56:43;14.00;99.90
15452;DHT22;7827;53.594;9.938;2023-04-15T13:59:12;14.10;99.90
15452;DHT22;7827;53.594;9.938;2023-04-15T14:01:40;14.00;1.00
15452;DHT22;7827;53.594;9.938;2023-04-15T14:04:09;14.00;1.00
15452;DHT22;7827;53.594;9.938;2023-04-15T14:06:38;14.10;1.00
15452;DHT22;7827;53.594;9.938;2023-04-15T14:09:06;14.30;1.00
15452;DHT22;7827;53.594;9.938;2023-04-15T14:11:38;14.30;1.00
15452;DHT22;7827;53.594;9.938;2023-04-15T14:14:07;14.20;1.00
15452;DHT22;7827;53.594;9.938;2023-04-15T14:16:36;14.10;1.00
15452;DHT22;7827;53.594;9.938;2023-04-15T14:19:04;14.00;99.90
15452;DHT22;7827;53.594;9.938;2023-04-15T14:21:33;14.00;1.00
15452;DHT22;7827;53.594;9.938;2023-04-15T14:24:02;13.90;1.00
15452;DHT22;7827;53.594;9.938;2023-04-15T14:26:30;13.80;1.00
15452;DHT22;7827;53.594;9.938;2023-04-15T14:28:59;13.80;99.90
15452;DHT22;7827;53.594;9.938;2023-04-15T14:31:28;13.80;99.90
15452;DHT22;7827;53.594;9.938;2023-04-15T14:33:57;13.90;1.00
15452;DHT22;7827;53.594;9.938;2023-04-15T14:36:25;13.90;99.90
15452;DHT22;7827;53.594;9.938;2023-04-15T14:38:54;13.80;1.00
15452;DHT22;7827;53.594;9.938;2023-04-15T14:41:22;13.90;99.90
15452;DHT22;7827;53.594;9.938;2023-04-15T14:43:51;14.00;99.90
15452;DHT22;7827;53.594;9.938;2023-04-15T14:46:19;13.90;1.00
15452;DHT22;7827;53.594;9.938;2023-04-15T14:48:49;14.00;99.90
15452;DHT22;7827;53.594;9.938;2023-04-15T14:51:18;13.90;99.90
15452;DHT22;7827;53.594;9.938;2023-04-15T14:53:46;13.90;1.00
15452;DHT22;7827;53.594;9.938;2023-04-15T14:56:15;13.70;99.90
15452;DHT22;7827;53.594;9.938;2023-04-15T14:58:43;13.60;1.00
15452;DHT22;7827;53.594;9.938;2023-04-15T15:01:12;13.50;1.00
15452;DHT22;7827;53.594;9.938;2023-04-15T15:03:40;13.40;1.00
15452;DHT22;7827;53.594;9.938;2023-04-15T15:06:11;13.60;1.00
15452;DHT22;7827;53.594;9.938;2023-04-15T15:08:39;13.60;1.00
15452;DHT22;7827;53.594;9.938;2023-04-15T15:11:07;13.60;99.90
15452;DHT22;7827;53.594;9.938;2023-04-15T15:13:36;13.50;1.00
15452;DHT22;7827;53.594;9.938;2023-04-15T15:16:04;13.40;1.00
15452;DHT22;7827;53.594;9.938;2023-04-15T15:18:34;13.40;1.00
15452;DHT22;7827;53.594;9.938;2023-04-15T15:21:03;13.30;99.90
15452;DHT22;7827;53.594;9.938;2023-04-15T15:23:33;13.30;99.90
15452;DHT22;7827;53.594;9.938;2023-04-15T15:26:01;13.40;99.90
15452;DHT22;7827;53.594;9.938;2023-04-15T15:28:30;13.50;47.30
15452;DHT22;7827;53.594;9.938;2023-04-15T15:30:58;13.60;14.00
15452;DHT22;7827;53.594;9.938;2023-04-15T15:33:27;13.60;99.90
15452;DHT22;7827;53.594;9.938;2023-04-15T15:35:56;13.70;1.00
15452;DHT22;7827;53.594;9.938;2023-04-15T15:38:25;13.70;1.00
15452;DHT22;7827;53.594;9.938;2023-04-15T15:40:56;13.60;14.60
15452;DHT22;7827;53.594;9.938;2023-04-15T15:43:24;13.70;99.90
15452;DHT22;7827;53.594;9.938;2023-04-15T15:45:53;13.60;1.00
15452;DHT22;7827;53.594;9.938;2023-04-15T15:48:23;13.60;1.00
15452;DHT22;7827;53.594;9.938;2023-04-15T15:50:52;13.60;99.90
15452;DHT22;7827;53.594;9.938;2023-04-15T15:53:21;13.70;99.90
15452;DHT22;7827;53.594;9.938;2023-04-15T15:55:51;13.50;99.90
15452;DHT22;7827;53.594;9.938;2023-04-15T15:58:21;13.50;1.00
15452;DHT22;7827;53.594;9.938;2023-04-15T16:00:49;13.40;1.00
15452;DHT22;7827;53.594;9.938;2023-04-15T16:03:18;13.40;1.00
15452;DHT22;7827;53.594;9.938;2023-04-15T16:05:46;13.30;1.00
15452;DHT22;7827;53.594;9.938;2023-04-15T16:08:15;13.30;99.90
15452;DHT22;7827;53.594;9.938;2023-04-15T16:10:44;13.20;99.90
15452;DHT22;7827;53.594;9.938;2023-04-15T16:13:12;13.30;1.00